Estación de Curicó

Ultimos registro cada 15 minutos 39
Estación Fecha / Hora Temperatura Humedad Lluvia Velocidad Dirección Radiación Presion
39 Curicó 04-05-2026 09:30 11,5 95,4 0 0 76 118,1 990,9
38 Curicó 04-05-2026 09:15 10,8 96,2 0 0 59 96,9 991
37 Curicó 04-05-2026 09:00 10,2 96,6 0 0 56 69,4 990,8
36 Curicó 04-05-2026 08:45 9,5 96,9 0 0 56 79,4 990,6
35 Curicó 04-05-2026 08:30 8,9 97,1 0 0 56 56,9 990,5
34 Curicó 04-05-2026 08:15 8,2 97 0 0 56 38,1 990,8
33 Curicó 04-05-2026 08:00 7,7 96,9 0 0 56 23,1 990,8
32 Curicó 04-05-2026 07:45 7,3 96,8 0 0 56 10,6 990,5
31 Curicó 04-05-2026 07:30 7 96,8 0 0 56 0,6 990,5
30 Curicó 04-05-2026 07:15 6,5 96,7 0 0 56 0,6 990,6
29 Curicó 04-05-2026 07:00 5,5 96,6 0 0 56 0,6 990,4
28 Curicó 04-05-2026 06:45 5 96,2 0 0 56 0,6 990,5
27 Curicó 04-05-2026 06:30 5,2 96,2 0 0 56 0,6 990,4
26 Curicó 04-05-2026 06:15 5,7 96 0 0 56 0,6 990,1
25 Curicó 04-05-2026 06:00 6,6 96 0 0 56 0,6 990,2
24 Curicó 04-05-2026 05:45 7,3 96 0 0 56 0,6 990
23 Curicó 04-05-2026 05:30 8 96,1 0 0 56 0,6 990,1
22 Curicó 04-05-2026 05:15 8 96 0 0 56 0,6 990,1
21 Curicó 04-05-2026 05:00 8 95,8 0 0 56 0,6 990,2
20 Curicó 04-05-2026 04:45 8,3 95,8 0 0 56 0,6 989,8
19 Curicó 04-05-2026 04:30 8,4 95,7 0 0 56 0,6 990
18 Curicó 04-05-2026 04:15 8,6 95,5 0 0 56 0,6 990,1
17 Curicó 04-05-2026 04:00 8,5 95,5 0 0 56 0,6 989,9
16 Curicó 04-05-2026 03:45 8,6 95,6 0 0 56 0,6 990,1
15 Curicó 04-05-2026 03:30 8,9 95,5 0 0 56 0,6 990,3
14 Curicó 04-05-2026 03:15 8,8 95,5 0 0 56 0,6 990,3
13 Curicó 04-05-2026 03:00 8,9 95,5 0 0 56 0,6 990,6
12 Curicó 04-05-2026 02:45 8,7 95,3 0 0 56 0,6 990,7
11 Curicó 04-05-2026 02:30 9 95,2 0 0 56 0,6 990,8
10 Curicó 04-05-2026 02:15 9,1 95,1 0 0 56 0,6 991
9 Curicó 04-05-2026 02:00 9,1 95 0 0 56 0,6 990,9
8 Curicó 04-05-2026 01:45 9,3 94,9 0 0 56 0,6 991
7 Curicó 04-05-2026 01:30 9,4 94,7 0 0 56 0,6 991,1
6 Curicó 04-05-2026 01:15 9,7 94,5 0 0 56 0,6 991
5 Curicó 04-05-2026 01:00 9,6 94,4 0 0 56 0,6 991,1
4 Curicó 04-05-2026 00:45 9,8 94,2 0 0 56 0,6 991,4
3 Curicó 04-05-2026 00:30 9,7 94 0 0 56 0,6 991,6
2 Curicó 04-05-2026 00:15 10 94 0 0 56 0,6 991,7
1 Curicó 04-05-2026 00:00 10,1 93,8 0 0 56 0,6 991,8